createdAt,value
2023-05-05T00:02:11.348Z,97913.13
2023-05-05T00:04:38.886Z,97919.34
2023-05-05T00:07:06.316Z,97918.31
2023-05-05T00:09:33.799Z,97915.22
2023-05-05T00:12:01.343Z,97914.56
2023-05-05T00:14:28.786Z,97910.44
2023-05-05T00:16:56.339Z,97909.00
2023-05-05T00:19:25.231Z,97911.06
2023-05-05T00:21:53.028Z,97911.88
2023-05-05T00:24:20.497Z,97919.53
2023-05-05T00:26:47.938Z,97908.78
2023-05-05T00:29:15.558Z,97905.47
2023-05-05T00:31:43.080Z,97899.69
2023-05-05T00:34:11.015Z,97910.00
2023-05-05T00:36:39.877Z,97902.72
2023-05-05T00:39:07.431Z,97899.59
2023-05-05T00:41:34.921Z,97900.84
2023-05-05T00:44:02.448Z,97887.78
2023-05-05T00:46:32.696Z,97890.88
2023-05-05T00:49:01.259Z,97880.38
2023-05-05T00:51:29.571Z,97873.53
2023-05-05T00:53:58.410Z,97870.66
2023-05-05T00:58:54.992Z,97877.88
2023-05-05T01:01:22.943Z,97868.78
2023-05-05T01:03:50.492Z,97876.44
2023-05-05T01:06:38.335Z,97867.13
2023-05-05T01:09:17.548Z,97869.81
2023-05-05T01:11:52.384Z,97867.53
2023-05-05T01:14:23.904Z,97859.25
2023-05-05T01:16:58.220Z,97864.22
2023-05-05T01:19:59.251Z,97861.31
2023-05-05T01:22:33.942Z,97867.28
2023-05-05T01:25:40.236Z,97860.25
2023-05-05T01:28:18.180Z,97862.75
2023-05-05T01:31:01.511Z,97869.75
2023-05-05T01:33:36.844Z,97865.94
2023-05-05T01:36:08.507Z,97859.00
2023-05-05T01:38:41.715Z,97863.56
2023-05-05T01:41:13.955Z,97868.03
2023-05-05T01:43:45.695Z,97864.19
2023-05-05T01:46:14.546Z,97862.28
2023-05-05T01:48:45.082Z,97868.09
2023-05-05T01:51:13.593Z,97862.72
2023-05-05T01:53:41.404Z,97863.66
2023-05-05T01:56:10.443Z,97869.75
2023-05-05T01:58:38.881Z,97868.38
2023-05-05T02:01:07.161Z,97863.94
2023-05-05T02:03:37.121Z,97863.06
2023-05-05T02:06:08.304Z,97875.25
2023-05-05T02:08:37.827Z,97862.22
2023-05-05T02:11:06.202Z,97863.28
2023-05-05T02:13:34.041Z,97863.50
2023-05-05T02:16:03.862Z,97869.94
2023-05-05T02:18:35.688Z,97874.06
2023-05-05T02:21:03.633Z,97870.94
2023-05-05T02:23:32.581Z,97865.16
2023-05-05T02:26:05.733Z,97861.63
2023-05-05T02:28:40.827Z,97861.81
2023-05-05T02:31:10.482Z,97859.56
2023-05-05T02:33:39.319Z,97871.97
2023-05-05T02:36:12.635Z,97870.69
2023-05-05T02:38:44.385Z,97875.44
2023-05-05T02:41:17.670Z,97866.94
2023-05-05T02:43:47.097Z,97862.00
2023-05-05T02:46:14.565Z,97862.22
2023-05-05T02:48:42.286Z,97858.06
2023-05-05T02:51:09.773Z,97852.31
2023-05-05T02:53:37.493Z,97846.50
2023-05-05T02:56:17.205Z,97851.28
2023-05-05T02:58:52.759Z,97848.97
2023-05-05T03:01:30.295Z,97859.34
2023-05-05T03:04:05.990Z,97848.19
2023-05-05T03:06:40.079Z,97858.97
2023-05-05T03:09:11.023Z,97841.03
2023-05-05T03:11:44.940Z,97844.38
2023-05-05T03:14:16.813Z,97843.34
2023-05-05T03:16:45.270Z,97844.59
2023-05-05T03:19:14.424Z,97845.56
2023-05-05T03:21:42.633Z,97856.09
2023-05-05T03:24:15.237Z,97855.53
2023-05-05T03:26:45.908Z,97850.47
2023-05-05T03:29:13.939Z,97850.97
2023-05-05T03:31:41.792Z,97839.38
2023-05-05T03:34:09.698Z,97835.88
2023-05-05T03:36:37.393Z,97841.84
2023-05-05T03:39:05.004Z,97848.63
2023-05-05T03:41:32.465Z,97850.72
2023-05-05T03:44:01.349Z,97843.69
2023-05-05T03:46:28.880Z,97844.75
2023-05-05T03:48:56.957Z,97852.16
2023-05-05T03:51:25.209Z,97850.13
2023-05-05T03:53:52.677Z,97846.78
2023-05-05T03:56:20.289Z,97847.66
2023-05-05T03:58:47.826Z,97855.66
2023-05-05T04:01:16.618Z,97858.94
2023-05-05T04:03:44.164Z,97857.41
2023-05-05T04:06:11.636Z,97861.41
2023-05-05T04:08:39.074Z,97863.84
2023-05-05T04:11:06.650Z,97852.75
2023-05-05T04:13:34.092Z,97860.78
2023-05-05T04:16:01.674Z,97858.13
2023-05-05T04:18:31.154Z,97855.22
2023-05-05T04:20:58.609Z,97851.09
2023-05-05T04:23:26.163Z,97846.56
2023-05-05T04:25:53.631Z,97859.56
2023-05-05T04:28:21.972Z,97849.53
2023-05-05T04:30:49.497Z,97855.59
2023-05-05T04:33:16.932Z,97854.59
2023-05-05T04:35:45.757Z,97862.00
2023-05-05T04:38:13.192Z,97856.03
2023-05-05T04:40:41.173Z,97856.03
2023-05-05T04:43:08.617Z,97862.13
2023-05-05T04:45:36.078Z,97857.31
2023-05-05T04:48:05.044Z,97860.38
2023-05-05T04:50:32.653Z,97871.03
2023-05-05T04:53:01.497Z,97869.09
2023-05-05T04:55:29.330Z,97874.63
2023-05-05T04:57:56.801Z,97883.16
2023-05-05T05:00:24.389Z,97876.91
2023-05-05T05:02:52.422Z,97877.41
2023-05-05T05:05:20.063Z,97878.31
2023-05-05T05:07:47.520Z,97890.03
2023-05-05T05:10:17.085Z,97898.75
2023-05-05T05:12:44.549Z,97896.81
2023-05-05T05:15:14.239Z,97898.50
2023-05-05T05:17:41.726Z,97913.63
2023-05-05T05:20:10.092Z,97903.28
2023-05-05T05:22:38.837Z,97900.00
2023-05-05T05:25:06.494Z,97902.19
2023-05-05T05:27:35.332Z,97897.63
2023-05-05T05:30:02.975Z,97890.66
2023-05-05T05:32:30.640Z,97904.38
2023-05-05T05:34:58.140Z,97885.53
2023-05-05T05:37:29.129Z,97883.84
2023-05-05T05:39:56.781Z,97883.72
2023-05-05T05:42:24.212Z,97891.88
2023-05-05T05:44:53.114Z,97887.38
2023-05-05T05:47:20.610Z,97888.00
2023-05-05T05:49:48.032Z,97897.84
2023-05-05T05:52:15.482Z,97893.44
2023-05-05T05:54:42.945Z,97895.66
2023-05-05T05:57:10.471Z,97898.16
2023-05-05T05:59:37.964Z,97895.13
2023-05-05T06:02:07.112Z,97901.34
2023-05-05T06:04:34.661Z,97905.78
2023-05-05T06:07:02.210Z,97903.28
2023-05-05T06:09:29.690Z,97912.25
2023-05-05T06:11:57.142Z,97907.63
2023-05-05T06:14:24.642Z,97914.31
2023-05-05T06:16:52.686Z,97903.47
2023-05-05T06:19:21.532Z,97900.38
2023-05-05T06:21:49.067Z,97902.56
2023-05-05T06:24:16.671Z,97888.66
2023-05-05T06:26:44.157Z,97891.75
2023-05-05T06:29:12.435Z,97884.94
2023-05-05T06:31:39.906Z,97900.00
2023-05-05T06:34:07.519Z,97901.41
2023-05-05T06:36:36.451Z,97902.78
2023-05-05T06:39:03.988Z,97892.50
2023-05-05T06:41:31.717Z,97899.28
2023-05-05T06:43:59.166Z,97901.09
2023-05-05T06:46:27.150Z,97892.06
2023-05-05T06:48:54.685Z,97886.41
2023-05-05T06:51:22.653Z,97890.50
2023-05-05T06:53:51.496Z,97886.72
2023-05-05T06:56:19.302Z,97887.34
2023-05-05T06:58:46.799Z,97881.19
2023-05-05T07:01:14.526Z,97889.16
2023-05-05T07:03:42.056Z,97879.78
2023-05-05T07:06:09.655Z,97880.22
2023-05-05T07:08:37.175Z,97873.84
2023-05-05T07:11:06.031Z,97878.63
2023-05-05T07:13:33.517Z,97888.22
2023-05-05T07:16:01.185Z,97876.31
2023-05-05T07:18:28.689Z,97880.31
2023-05-05T07:20:56.110Z,97875.44
2023-05-05T07:23:23.560Z,97880.38
2023-05-05T07:25:51.133Z,97882.94
2023-05-05T07:28:20.065Z,97892.78
2023-05-05T07:30:47.529Z,97894.34
2023-05-05T07:33:15.738Z,97894.28
2023-05-05T07:35:43.183Z,97890.88
2023-05-05T07:38:11.081Z,97888.78
2023-05-05T07:40:38.603Z,97883.38
2023-05-05T07:43:06.124Z,97885.81
2023-05-05T07:45:34.999Z,97879.50
2023-05-05T07:48:02.613Z,97877.47
2023-05-05T07:50:30.240Z,97881.94
2023-05-05T07:53:10.671Z,97881.47
2023-05-05T07:55:41.766Z,97887.59
2023-05-05T07:58:10.709Z,97883.75
2023-05-05T08:00:39.652Z,97881.34
2023-05-05T08:03:09.725Z,97886.41
2023-05-05T08:05:39.069Z,97897.31
2023-05-05T08:08:06.932Z,97888.69
2023-05-05T08:10:34.377Z,97887.84
2023-05-05T08:13:01.992Z,97884.94
2023-05-05T08:15:29.595Z,97881.06
2023-05-05T08:17:58.437Z,97879.53
2023-05-05T08:20:29.413Z,97895.06
2023-05-05T08:22:56.952Z,97894.69
2023-05-05T08:25:26.747Z,97895.75
2023-05-05T08:27:54.551Z,97887.88
2023-05-05T08:30:22.269Z,97891.88
2023-05-05T08:32:49.745Z,97888.84
2023-05-05T08:35:18.803Z,97894.09
2023-05-05T08:37:46.341Z,97884.13
2023-05-05T08:40:14.970Z,97894.81
2023-05-05T08:42:42.631Z,97882.47
2023-05-05T08:45:11.501Z,97884.00
2023-05-05T08:47:40.293Z,97881.50
2023-05-05T08:50:11.156Z,97880.28
2023-05-05T08:52:41.879Z,97884.41
2023-05-05T08:55:16.210Z,97889.41
2023-05-05T08:57:50.351Z,97879.50
2023-05-05T09:00:19.591Z,97875.50
2023-05-05T09:02:47.780Z,97879.72
2023-05-05T09:05:15.761Z,97872.22
2023-05-05T09:07:44.810Z,97865.72
2023-05-05T09:10:13.114Z,97882.09
2023-05-05T09:12:41.388Z,97870.06
2023-05-05T09:15:10.129Z,97871.53
2023-05-05T09:17:38.051Z,97873.22
2023-05-05T09:20:07.687Z,97879.94
2023-05-05T09:22:37.047Z,97872.69
2023-05-05T09:25:07.565Z,97861.53
2023-05-05T09:27:40.683Z,97867.34
2023-05-05T09:30:09.945Z,97862.81
2023-05-05T09:32:55.809Z,97861.16
2023-05-05T09:35:24.349Z,97855.59
2023-05-05T09:37:52.013Z,97856.69
2023-05-05T09:40:22.131Z,97852.34
2023-05-05T09:42:49.789Z,97853.38
2023-05-05T09:45:27.984Z,97848.59
2023-05-05T09:47:59.602Z,97857.63
2023-05-05T09:50:30.133Z,97855.81
2023-05-05T09:52:58.488Z,97853.94
2023-05-05T09:55:27.344Z,97850.56
2023-05-05T09:57:55.061Z,97846.78
2023-05-05T10:00:22.934Z,97849.31
2023-05-05T10:02:50.446Z,97852.00
2023-05-05T10:05:19.397Z,97852.28
2023-05-05T10:07:48.764Z,97844.69
2023-05-05T10:10:18.387Z,97849.56
2023-05-05T10:12:49.313Z,97850.56
2023-05-05T10:15:17.473Z,97854.19
2023-05-05T10:17:58.373Z,97854.81
2023-05-05T10:20:34.176Z,97844.47
2023-05-05T10:23:06.515Z,97840.84
2023-05-05T10:25:41.224Z,97845.88
2023-05-05T10:28:16.819Z,97841.13
2023-05-05T10:30:46.959Z,97842.91
2023-05-05T10:33:31.557Z,97834.66
2023-05-05T10:36:03.104Z,97842.00
2023-05-05T10:38:32.344Z,97829.66
2023-05-05T10:41:01.157Z,97826.59
2023-05-05T10:43:31.893Z,97836.03
2023-05-05T10:46:00.504Z,97831.56
2023-05-05T10:48:35.491Z,97826.66
2023-05-05T10:51:27.333Z,97826.81
2023-05-05T10:54:11.370Z,97823.34
2023-05-05T10:56:41.738Z,97816.81
2023-05-05T10:59:44.383Z,97818.66
2023-05-05T11:02:22.792Z,97808.88
2023-05-05T11:05:08.162Z,97803.41
2023-05-05T11:07:35.853Z,97801.66
2023-05-05T11:10:05.048Z,97801.09
2023-05-05T11:12:35.503Z,97803.19
2023-05-05T11:15:38.279Z,97798.19
2023-05-05T11:18:08.229Z,97795.34
2023-05-05T11:21:03.491Z,97786.63
2023-05-05T11:23:31.623Z,97780.59
2023-05-05T11:25:59.196Z,97784.06
2023-05-05T11:28:29.921Z,97781.88
2023-05-05T11:31:20.894Z,97779.28
2023-05-05T11:33:48.913Z,97784.78
2023-05-05T11:36:17.783Z,97785.88
2023-05-05T11:39:04.818Z,97786.09
2023-05-05T11:41:46.262Z,97794.69
2023-05-05T11:44:15.139Z,97788.34
2023-05-05T11:47:22.739Z,97790.22
2023-05-05T11:49:50.727Z,97775.84
2023-05-05T11:52:18.327Z,97779.34
2023-05-05T11:54:48.529Z,97771.22
2023-05-05T11:57:19.266Z,97766.13
2023-05-05T11:59:52.117Z,97775.63
2023-05-05T12:02:22.342Z,97781.50
2023-05-05T12:04:50.480Z,97781.84
2023-05-05T12:07:19.131Z,97775.97
2023-05-05T12:09:48.164Z,97778.06
2023-05-05T12:12:16.368Z,97773.53
2023-05-05T12:14:51.970Z,97780.38
2023-05-05T12:17:22.428Z,97778.31
2023-05-05T12:19:53.435Z,97776.06
2023-05-05T12:22:23.282Z,97781.50
2023-05-05T12:24:55.758Z,97775.72
2023-05-05T12:27:23.959Z,97786.59
2023-05-05T12:29:51.622Z,97775.88
2023-05-05T12:32:22.108Z,97773.53
2023-05-05T12:34:53.727Z,97781.22
2023-05-05T12:37:22.075Z,97773.16
2023-05-05T12:39:49.780Z,97773.38
2023-05-05T12:42:17.954Z,97768.06
2023-05-05T12:44:46.629Z,97769.38
2023-05-05T12:47:14.745Z,97772.75
2023-05-05T12:49:51.484Z,97784.91
2023-05-05T12:52:20.709Z,97779.16
2023-05-05T12:54:56.060Z,97784.13
2023-05-05T12:57:24.252Z,97785.63
2023-05-05T12:59:52.726Z,97772.25
2023-05-05T13:02:21.465Z,97780.72
2023-05-05T13:04:52.059Z,97778.50
2023-05-05T13:07:20.989Z,97770.66
2023-05-05T13:09:49.766Z,97759.31
2023-05-05T13:12:19.314Z,97759.97
2023-05-05T13:14:47.484Z,97762.81
2023-05-05T13:17:15.400Z,97765.69
2023-05-05T13:19:45.906Z,97768.06
2023-05-05T13:22:15.115Z,97767.06
2023-05-05T13:24:51.618Z,97750.63
2023-05-05T13:27:20.032Z,97753.22
2023-05-05T13:29:47.916Z,97757.72
2023-05-05T13:32:15.485Z,97768.56
2023-05-05T13:34:43.976Z,97761.97
2023-05-05T13:37:11.528Z,97763.75
2023-05-05T13:39:40.566Z,97763.59
2023-05-05T13:42:08.026Z,97765.13
2023-05-05T13:44:37.865Z,97762.09
2023-05-05T13:47:05.669Z,97757.97
2023-05-05T13:49:33.229Z,97754.66
2023-05-05T13:52:02.751Z,97752.81
2023-05-05T13:54:30.585Z,97744.94
2023-05-05T13:56:59.951Z,97749.53
2023-05-05T13:59:27.549Z,97739.97
2023-05-05T14:01:55.096Z,97731.38
2023-05-05T14:04:22.721Z,97733.56
2023-05-05T14:06:50.388Z,97733.44
2023-05-05T14:09:17.849Z,97724.03
2023-05-05T14:11:47.429Z,97727.06
2023-05-05T14:14:16.313Z,97720.13
2023-05-05T14:16:43.808Z,97728.03
2023-05-05T14:19:11.263Z,97729.47
2023-05-05T14:21:38.775Z,97731.56
2023-05-05T14:24:06.855Z,97724.53
2023-05-05T14:26:34.200Z,97724.16
2023-05-05T14:29:01.666Z,97718.53
2023-05-05T14:31:30.533Z,97713.84
2023-05-05T14:33:58.016Z,97724.59
2023-05-05T14:36:26.731Z,97716.81
2023-05-05T14:38:54.283Z,97722.53
2023-05-05T14:41:21.835Z,97711.25
2023-05-05T14:43:49.335Z,97714.50
2023-05-05T14:46:16.960Z,97710.44
2023-05-05T14:48:47.153Z,97717.94
2023-05-05T14:51:15.126Z,97717.03
2023-05-05T14:53:43.289Z,97718.59
2023-05-05T14:56:10.638Z,97708.13
2023-05-05T14:58:38.350Z,97706.94
2023-05-05T15:01:05.875Z,97703.78
2023-05-05T15:03:33.573Z,97693.22
2023-05-05T15:06:02.466Z,97692.06
2023-05-05T15:08:29.973Z,97694.03
2023-05-05T15:10:57.471Z,97694.66
2023-05-05T15:13:25.027Z,97694.75
2023-05-05T15:15:52.566Z,97680.06
2023-05-05T15:18:20.076Z,97693.91
2023-05-05T15:20:47.524Z,97681.00
2023-05-05T15:23:16.470Z,97680.97
2023-05-05T15:25:44.041Z,97665.25
2023-05-05T15:28:11.513Z,97675.69
2023-05-05T15:30:38.993Z,97675.63
2023-05-05T15:33:06.565Z,97672.75
2023-05-05T15:35:34.058Z,97669.78
2023-05-05T15:38:04.883Z,97678.25
2023-05-05T15:40:33.789Z,97673.19
2023-05-05T15:43:01.357Z,97684.97
2023-05-05T15:45:28.822Z,97699.91
2023-05-05T15:47:56.353Z,97684.13
2023-05-05T15:50:23.905Z,97688.34
2023-05-05T15:52:51.526Z,97665.16
2023-05-05T15:55:19.013Z,97663.34
2023-05-05T15:57:47.839Z,97674.53
2023-05-05T16:00:16.080Z,97686.03
2023-05-05T16:02:43.601Z,97693.09
2023-05-05T16:05:12.216Z,97694.38
2023-05-05T16:07:39.908Z,97692.06
2023-05-05T16:10:09.811Z,97694.63
2023-05-05T16:12:38.318Z,97694.84
2023-05-05T16:15:10.520Z,97700.09
2023-05-05T16:17:38.618Z,97696.09
2023-05-05T16:20:07.086Z,97690.53
2023-05-05T16:22:34.560Z,97679.03
2023-05-05T16:25:02.060Z,97674.09
2023-05-05T16:27:29.565Z,97672.59
2023-05-05T16:29:59.527Z,97675.41
2023-05-05T16:32:28.675Z,97680.09
2023-05-05T16:34:56.181Z,97673.09
2023-05-05T16:37:23.872Z,97660.75
2023-05-05T16:39:51.415Z,97660.78
2023-05-05T16:42:19.149Z,97671.47
2023-05-05T16:44:46.664Z,97669.00
2023-05-05T16:47:14.201Z,97685.66
2023-05-05T16:49:43.028Z,97695.47
2023-05-05T16:52:13.223Z,97699.81
2023-05-05T16:54:41.504Z,97686.03
2023-05-05T16:57:09.044Z,97676.50
2023-05-05T16:59:36.938Z,97683.22
2023-05-05T17:02:04.438Z,97687.88
2023-05-05T17:04:34.728Z,97690.38
2023-05-05T17:07:03.607Z,97683.13
2023-05-05T17:09:31.082Z,97680.69
2023-05-05T17:11:58.558Z,97673.09
2023-05-05T17:14:27.194Z,97645.28
2023-05-05T17:16:55.243Z,97656.78
2023-05-05T17:19:22.758Z,97645.88
2023-05-05T17:21:50.238Z,97649.59
2023-05-05T17:24:19.017Z,97653.19
2023-05-05T17:26:46.702Z,97661.84
2023-05-05T17:29:15.160Z,97661.38
2023-05-05T17:31:42.715Z,97652.19
2023-05-05T17:34:13.197Z,97651.91
2023-05-05T17:36:45.819Z,97648.38
2023-05-05T17:39:13.612Z,97645.38
2023-05-05T17:41:42.778Z,97659.13
2023-05-05T17:44:10.351Z,97659.41
2023-05-05T17:46:38.169Z,97659.06
2023-05-05T17:49:05.729Z,97641.63
2023-05-05T17:51:33.262Z,97633.88
2023-05-05T17:54:00.698Z,97626.63
2023-05-05T17:56:28.173Z,97627.22
2023-05-05T17:58:56.999Z,97630.25
2023-05-05T18:01:25.665Z,97628.13
2023-05-05T18:04:01.388Z,97624.09
2023-05-05T18:06:29.278Z,97626.78
2023-05-05T18:08:57.302Z,97634.31
2023-05-05T18:11:27.511Z,97619.63
2023-05-05T18:13:57.010Z,97625.84
2023-05-05T18:16:24.551Z,97617.09
2023-05-05T18:18:52.082Z,97622.75
2023-05-05T18:21:19.557Z,97622.06
2023-05-05T18:23:47.044Z,97628.25
2023-05-05T18:26:14.529Z,97613.03
2023-05-05T18:28:42.021Z,97612.44
2023-05-05T18:31:10.877Z,97601.72
2023-05-05T18:33:38.444Z,97611.00
2023-05-05T18:36:06.488Z,97621.25
2023-05-05T18:38:33.940Z,97629.16
2023-05-05T18:41:01.560Z,97636.72
2023-05-05T18:43:29.018Z,97637.44
2023-05-05T18:45:56.527Z,97635.09
2023-05-05T18:48:26.103Z,97640.97
2023-05-05T18:50:53.569Z,97642.84
2023-05-05T18:53:21.051Z,97663.19
2023-05-05T18:55:49.221Z,97662.22
2023-05-05T18:58:16.934Z,97672.97
2023-05-05T19:00:44.764Z,97672.13
2023-05-05T19:03:12.487Z,97715.25
2023-05-05T19:05:41.963Z,97724.22
2023-05-05T19:08:09.491Z,97735.75
2023-05-05T19:10:37.388Z,97752.00
2023-05-05T19:13:04.986Z,97770.16
2023-05-05T19:15:32.665Z,97779.56
2023-05-05T19:18:00.585Z,97791.31
2023-05-05T19:20:30.730Z,97793.34
2023-05-05T19:23:03.722Z,97794.41
2023-05-05T19:25:31.254Z,97811.66
2023-05-05T19:27:59.310Z,97812.72
2023-05-05T19:30:26.882Z,97825.13
2023-05-05T19:32:54.430Z,97827.59
2023-05-05T19:35:22.289Z,97824.91
2023-05-05T19:37:49.721Z,97831.66
2023-05-05T19:40:18.537Z,97830.00
2023-05-05T19:42:46.003Z,97835.41
2023-05-05T19:45:13.471Z,97838.28
2023-05-05T19:47:40.958Z,97840.53
2023-05-05T19:50:09.133Z,97846.84
2023-05-05T19:52:38.273Z,97847.13
2023-05-05T19:55:06.648Z,97840.59
2023-05-05T19:57:35.570Z,97851.13
2023-05-05T20:00:04.883Z,97839.28
2023-05-05T20:02:33.748Z,97846.13
2023-05-05T20:05:03.055Z,97849.47
2023-05-05T20:07:30.519Z,97848.66
2023-05-05T20:09:58.708Z,97845.16
2023-05-05T20:12:26.471Z,97847.44
2023-05-05T20:14:55.401Z,97843.13
2023-05-05T20:17:23.678Z,97834.66
2023-05-05T20:19:51.009Z,97839.34
2023-05-05T20:22:18.816Z,97833.06
2023-05-05T20:24:46.313Z,97820.13
2023-05-05T20:27:13.751Z,97816.13
2023-05-05T20:29:41.184Z,97812.69
2023-05-05T20:32:10.015Z,97814.25
2023-05-05T20:34:38.730Z,97812.03
2023-05-05T20:37:06.223Z,97806.13
2023-05-05T20:39:33.720Z,97810.81
2023-05-05T20:42:01.157Z,97820.63
2023-05-05T20:44:28.578Z,97807.44
2023-05-05T20:46:56.105Z,97804.59
2023-05-05T20:49:24.970Z,97810.03
2023-05-05T20:51:52.460Z,97795.78
2023-05-05T20:54:19.907Z,97788.88
2023-05-05T20:56:47.338Z,97803.34
2023-05-05T20:59:14.849Z,97799.91
2023-05-05T21:01:42.415Z,97800.19
2023-05-05T21:04:09.924Z,97808.72
2023-05-05T21:06:38.756Z,97794.78
2023-05-05T21:09:06.549Z,97788.94
2023-05-05T21:11:34.116Z,97792.63
2023-05-05T21:14:01.557Z,97786.25
2023-05-05T21:16:29.007Z,97782.53
2023-05-05T21:18:56.459Z,97776.13
2023-05-05T21:21:24.567Z,97779.97
2023-05-05T21:23:55.071Z,97788.78
2023-05-05T21:26:22.585Z,97790.38
2023-05-05T21:28:50.047Z,97788.03
2023-05-05T21:31:21.912Z,97801.03
2023-05-05T21:33:49.599Z,97792.34
2023-05-05T21:36:18.867Z,97787.66
2023-05-05T21:38:46.312Z,97792.03
2023-05-05T21:41:15.087Z,97791.19
2023-05-05T21:43:42.523Z,97781.50
2023-05-05T21:46:10.032Z,97792.91
2023-05-05T21:48:38.703Z,97785.50
2023-05-05T21:51:06.618Z,97785.72
2023-05-05T21:53:34.145Z,97777.53
2023-05-05T21:56:02.278Z,97779.06
2023-05-05T21:58:31.071Z,97779.28
2023-05-05T22:00:58.500Z,97780.25
2023-05-05T22:03:26.273Z,97785.84
2023-05-05T22:05:53.845Z,97782.63
2023-05-05T22:08:21.402Z,97796.81
2023-05-05T22:10:48.836Z,97783.69
2023-05-05T22:13:16.398Z,97786.06
2023-05-05T22:15:47.252Z,97777.59
2023-05-05T22:18:15.282Z,97782.16
2023-05-05T22:20:43.192Z,97784.28
2023-05-05T22:23:10.707Z,97789.16
2023-05-05T22:25:38.435Z,97805.69
2023-05-05T22:28:05.919Z,97806.06
2023-05-05T22:30:33.549Z,97804.00
2023-05-05T22:33:02.472Z,97793.63
2023-05-05T22:35:30.062Z,97788.03
2023-05-05T22:37:57.827Z,97795.97
2023-05-05T22:40:25.343Z,97791.94
2023-05-05T22:42:52.896Z,97786.97
2023-05-05T22:45:20.769Z,97784.84
2023-05-05T22:47:48.229Z,97786.53
2023-05-05T22:50:17.149Z,97799.81
2023-05-05T22:52:44.610Z,97781.03
2023-05-05T22:55:13.902Z,97776.97
2023-05-05T22:57:42.152Z,97783.44
2023-05-05T23:00:10.953Z,97798.59
2023-05-05T23:02:38.672Z,97792.91
2023-05-05T23:05:07.182Z,97786.97
2023-05-05T23:07:36.059Z,97796.16
2023-05-05T23:10:03.613Z,97802.41
2023-05-05T23:12:31.225Z,97799.63
2023-05-05T23:14:58.681Z,97788.59
2023-05-05T23:17:26.189Z,97796.84
2023-05-05T23:19:53.683Z,97798.50
2023-05-05T23:22:21.138Z,97786.44
2023-05-05T23:24:49.906Z,97785.63
2023-05-05T23:27:17.358Z,97783.31
2023-05-05T23:29:44.815Z,97784.09
2023-05-05T23:32:12.244Z,97789.09
2023-05-05T23:34:39.719Z,97782.28
2023-05-05T23:37:07.204Z,97782.75
2023-05-05T23:39:34.935Z,97790.31
2023-05-05T23:42:03.725Z,97790.25
2023-05-05T23:44:31.176Z,97794.16
2023-05-05T23:46:58.609Z,97800.72
2023-05-05T23:49:26.364Z,97801.88
2023-05-05T23:51:53.852Z,97803.91
2023-05-05T23:54:21.335Z,97814.53
2023-05-05T23:56:48.764Z,97806.97
2023-05-05T23:59:17.767Z,97810.41
